createdAt,value
2023-05-07T00:02:21.987Z,100.00
2023-05-07T00:04:50.057Z,100.00
2023-05-07T00:07:17.083Z,100.00
2023-05-07T00:09:44.401Z,100.00
2023-05-07T00:12:11.675Z,100.00
2023-05-07T00:14:38.581Z,100.00
2023-05-07T00:17:05.410Z,100.00
2023-05-07T00:19:34.931Z,100.00
2023-05-07T00:22:01.965Z,100.00
2023-05-07T00:24:28.797Z,100.00
2023-05-07T00:26:59.074Z,100.00
2023-05-07T00:29:26.137Z,100.00
2023-05-07T00:31:54.876Z,100.00
2023-05-07T00:34:21.694Z,100.00
2023-05-07T00:36:48.649Z,100.00
2023-05-07T00:39:15.912Z,100.00
2023-05-07T00:41:43.079Z,100.00
2023-05-07T00:44:09.792Z,100.00
2023-05-07T00:46:39.283Z,100.00
2023-05-07T00:49:07.164Z,100.00
2023-05-07T00:51:35.128Z,100.00
2023-05-07T00:54:04.084Z,100.00
2023-05-07T00:56:32.553Z,100.00
2023-05-07T00:58:59.647Z,100.00
2023-05-07T01:01:27.614Z,100.00
2023-05-07T01:03:54.903Z,100.00
2023-05-07T01:06:25.807Z,100.00
2023-05-07T01:08:54.066Z,100.00
2023-05-07T01:11:22.656Z,100.00
2023-05-07T01:13:54.716Z,100.00
2023-05-07T01:16:22.439Z,100.00
2023-05-07T01:18:52.042Z,100.00
2023-05-07T01:21:19.892Z,100.00
2023-05-07T01:23:48.350Z,100.00
2023-05-07T01:26:15.694Z,100.00
2023-05-07T01:28:56.537Z,100.00
2023-05-07T01:31:26.369Z,100.00
2023-05-07T01:33:55.106Z,100.00
2023-05-07T01:36:26.884Z,100.00
2023-05-07T01:38:54.216Z,100.00
2023-05-07T01:41:21.924Z,100.00
2023-05-07T01:43:51.093Z,100.00
2023-05-07T01:46:20.072Z,100.00
2023-05-07T01:48:47.732Z,100.00
2023-05-07T01:51:14.515Z,100.00
2023-05-07T01:53:45.053Z,100.00
2023-05-07T01:56:12.112Z,100.00
2023-05-07T01:58:39.178Z,100.00
2023-05-07T02:01:05.987Z,100.00
2023-05-07T02:03:32.802Z,100.00
2023-05-07T02:05:59.633Z,100.00
2023-05-07T02:08:26.410Z,100.00
2023-05-07T02:10:54.817Z,100.00
2023-05-07T02:13:23.445Z,100.00
2023-05-07T02:15:51.933Z,100.00
2023-05-07T02:18:19.121Z,100.00
2023-05-07T02:20:46.014Z,100.00
2023-05-07T02:23:12.835Z,100.00
2023-05-07T02:25:39.621Z,100.00
2023-05-07T02:28:06.798Z,100.00
2023-05-07T02:30:38.625Z,100.00
2023-05-07T02:33:05.641Z,100.00
2023-05-07T02:35:32.901Z,100.00
2023-05-07T02:37:59.689Z,100.00
2023-05-07T02:40:26.537Z,100.00
2023-05-07T02:42:53.271Z,100.00
2023-05-07T02:45:20.035Z,100.00
2023-05-07T02:47:47.474Z,100.00
2023-05-07T02:50:14.486Z,100.00
2023-05-07T02:52:43.838Z,100.00
2023-05-07T02:55:10.850Z,100.00
2023-05-07T02:57:37.688Z,100.00
2023-05-07T03:00:20.177Z,100.00
2023-05-07T03:02:47.486Z,100.00
2023-05-07T03:05:15.537Z,100.00
2023-05-07T03:07:46.177Z,100.00
2023-05-07T03:10:13.277Z,100.00
2023-05-07T03:12:40.496Z,100.00
2023-05-07T03:15:08.241Z,100.00
2023-05-07T03:17:35.038Z,100.00
2023-05-07T03:20:01.892Z,100.00
2023-05-07T03:22:31.167Z,100.00
2023-05-07T03:24:58.156Z,100.00
2023-05-07T03:27:25.004Z,100.00
2023-05-07T03:29:51.828Z,100.00
2023-05-07T03:32:18.685Z,100.00
2023-05-07T03:34:45.418Z,100.00
2023-05-07T03:37:12.372Z,100.00
2023-05-07T03:39:39.228Z,100.00
2023-05-07T03:42:06.153Z,100.00
2023-05-07T03:44:32.965Z,100.00
2023-05-07T03:46:59.847Z,100.00
2023-05-07T03:49:29.727Z,100.00
2023-05-07T03:51:56.719Z,100.00
2023-05-07T03:54:26.264Z,100.00
2023-05-07T03:56:54.224Z,100.00
2023-05-07T03:59:21.061Z,100.00
2023-05-07T04:01:48.020Z,100.00
2023-05-07T04:04:15.293Z,100.00
2023-05-07T04:06:42.217Z,100.00
2023-05-07T04:09:09.422Z,100.00
2023-05-07T04:11:37.090Z,100.00
2023-05-07T04:14:03.895Z,100.00
2023-05-07T04:16:30.825Z,100.00
2023-05-07T04:18:57.598Z,100.00
2023-05-07T04:21:24.556Z,100.00
2023-05-07T04:23:51.889Z,100.00
2023-05-07T04:26:18.655Z,100.00
2023-05-07T04:28:45.769Z,100.00
2023-05-07T04:31:12.597Z,100.00
2023-05-07T04:33:39.756Z,100.00
2023-05-07T04:36:06.734Z,100.00
2023-05-07T04:38:33.595Z,100.00
2023-05-07T04:41:07.809Z,100.00
2023-05-07T04:43:37.127Z,100.00
2023-05-07T04:46:04.172Z,100.00
2023-05-07T04:48:31.129Z,100.00
2023-05-07T04:51:00.645Z,100.00
2023-05-07T04:53:27.484Z,100.00
2023-05-07T04:55:58.597Z,100.00
2023-05-07T04:58:25.651Z,100.00
2023-05-07T05:00:52.777Z,100.00
2023-05-07T05:03:19.775Z,100.00
2023-05-07T05:05:46.902Z,100.00
2023-05-07T05:08:13.812Z,100.00
2023-05-07T05:10:41.891Z,100.00
2023-05-07T05:13:09.296Z,100.00
2023-05-07T05:15:36.570Z,100.00
2023-05-07T05:18:03.584Z,100.00
2023-05-07T05:20:30.737Z,100.00
2023-05-07T05:22:57.527Z,100.00
2023-05-07T05:25:24.363Z,100.00
2023-05-07T05:27:51.609Z,100.00
2023-05-07T05:30:18.374Z,100.00
2023-05-07T05:32:45.162Z,100.00
2023-05-07T05:35:12.213Z,100.00
2023-05-07T05:37:41.661Z,100.00
2023-05-07T05:40:09.240Z,100.00
2023-05-07T05:42:36.214Z,100.00
2023-05-07T05:45:03.118Z,100.00
2023-05-07T05:47:30.883Z,100.00
2023-05-07T05:49:58.080Z,100.00
2023-05-07T05:52:25.186Z,100.00
2023-05-07T05:54:54.556Z,100.00
2023-05-07T05:57:21.560Z,100.00
2023-05-07T05:59:48.590Z,100.00
2023-05-07T06:02:15.641Z,100.00
2023-05-07T06:04:43.589Z,100.00
2023-05-07T06:07:11.546Z,100.00
2023-05-07T06:09:38.573Z,100.00
2023-05-07T06:12:05.612Z,100.00
2023-05-07T06:14:32.563Z,100.00
2023-05-07T06:16:59.438Z,100.00
2023-05-07T06:19:27.624Z,100.00
2023-05-07T06:21:54.644Z,100.00
2023-05-07T06:24:21.605Z,100.00
2023-05-07T06:26:48.438Z,100.00
2023-05-07T06:29:15.561Z,100.00
2023-05-07T06:31:42.574Z,100.00
2023-05-07T06:34:15.213Z,100.00
2023-05-07T06:36:42.636Z,100.00
2023-05-07T06:39:09.784Z,98.37
2023-05-07T06:41:36.717Z,97.02
2023-05-07T06:44:04.330Z,95.60
2023-05-07T06:46:31.737Z,93.87
2023-05-07T06:48:58.630Z,91.93
2023-05-07T06:51:25.444Z,90.08
2023-05-07T06:53:52.185Z,88.80
2023-05-07T06:56:19.649Z,86.76
2023-05-07T06:58:46.714Z,84.96
2023-05-07T07:01:13.704Z,83.25
2023-05-07T07:03:41.269Z,83.76
2023-05-07T07:06:08.866Z,83.03
2023-05-07T07:08:35.761Z,80.72
2023-05-07T07:11:02.561Z,80.50
2023-05-07T07:13:29.838Z,79.78
2023-05-07T07:15:56.741Z,78.84
2023-05-07T07:18:23.733Z,78.44
2023-05-07T07:20:50.674Z,78.82
2023-05-07T07:23:17.469Z,79.30
2023-05-07T07:25:44.326Z,79.57
2023-05-07T07:28:11.892Z,79.92
2023-05-07T07:30:39.765Z,79.65
2023-05-07T07:33:06.889Z,80.42
2023-05-07T07:35:34.129Z,80.02
2023-05-07T07:38:01.220Z,79.71
2023-05-07T07:40:28.870Z,80.09
2023-05-07T07:42:56.301Z,80.61
2023-05-07T07:45:23.283Z,80.29
2023-05-07T07:47:50.193Z,80.80
2023-05-07T07:50:31.772Z,80.18
2023-05-07T07:53:03.037Z,79.68
2023-05-07T07:55:31.958Z,79.86
2023-05-07T07:57:58.873Z,79.71
2023-05-07T08:00:25.724Z,80.23
2023-05-07T08:02:52.769Z,79.59
2023-05-07T08:05:19.951Z,78.72
2023-05-07T08:07:47.950Z,77.58
2023-05-07T08:10:22.371Z,76.81
2023-05-07T08:12:52.725Z,76.19
2023-05-07T08:15:20.022Z,76.16
2023-05-07T08:17:46.887Z,73.94
2023-05-07T08:20:14.956Z,73.96
2023-05-07T08:22:41.818Z,73.57
2023-05-07T08:25:10.816Z,72.78
2023-05-07T08:27:37.633Z,73.79
2023-05-07T08:30:05.773Z,72.96
2023-05-07T08:32:32.743Z,73.45
2023-05-07T08:34:59.533Z,73.75
2023-05-07T08:37:26.368Z,74.14
2023-05-07T08:39:53.279Z,72.96
2023-05-07T08:42:24.089Z,71.36
2023-05-07T08:44:55.614Z,69.93
2023-05-07T08:47:29.764Z,67.92
2023-05-07T08:49:56.748Z,71.68
2023-05-07T08:52:23.748Z,68.54
2023-05-07T08:54:52.050Z,69.28
2023-05-07T08:57:20.840Z,68.59
2023-05-07T08:59:47.616Z,66.84
2023-05-07T09:02:14.422Z,65.29
2023-05-07T09:04:41.329Z,66.31
2023-05-07T09:07:08.130Z,66.17
2023-05-07T09:09:35.087Z,65.23
2023-05-07T09:12:02.956Z,64.60
2023-05-07T09:14:29.976Z,64.67
2023-05-07T09:16:57.986Z,63.46
2023-05-07T09:19:26.053Z,64.27
2023-05-07T09:22:02.028Z,63.64
2023-05-07T09:24:35.812Z,61.91
2023-05-07T09:27:03.714Z,62.11
2023-05-07T09:29:34.036Z,61.12
2023-05-07T09:32:00.916Z,60.95
2023-05-07T09:34:27.835Z,61.65
2023-05-07T09:37:18.743Z,61.23
2023-05-07T09:42:51.870Z,63.89
2023-05-07T09:45:41.573Z,64.46
2023-05-07T09:48:15.916Z,64.58
2023-05-07T09:50:57.389Z,67.30
2023-05-07T09:55:53.710Z,68.29
2023-05-07T09:58:21.606Z,66.33
2023-05-07T10:00:51.340Z,66.95
2023-05-07T10:03:20.242Z,68.44
2023-05-07T10:05:48.724Z,67.04
2023-05-07T10:08:17.871Z,66.80
2023-05-07T10:10:46.184Z,66.70
2023-05-07T10:13:13.684Z,64.05
2023-05-07T10:15:42.210Z,61.32
2023-05-07T10:18:11.081Z,60.65
2023-05-07T10:20:40.454Z,61.41
2023-05-07T10:23:13.778Z,65.79
2023-05-07T10:25:40.714Z,65.62
2023-05-07T10:28:11.151Z,62.63
2023-05-07T10:31:19.508Z,63.51
2023-05-07T10:33:52.132Z,63.94
2023-05-07T10:36:19.772Z,61.05
2023-05-07T10:38:47.544Z,58.08
2023-05-07T10:41:16.156Z,57.49
2023-05-07T10:43:46.847Z,56.74
2023-05-07T10:46:20.445Z,55.57
2023-05-07T10:49:13.832Z,55.46
2023-05-07T10:51:41.179Z,54.24
2023-05-07T10:54:28.299Z,56.10
2023-05-07T10:56:55.555Z,55.93
2023-05-07T10:59:23.705Z,58.21
2023-05-07T11:02:00.965Z,58.85
2023-05-07T11:04:28.844Z,60.88
2023-05-07T11:07:09.249Z,58.32
2023-05-07T11:09:54.544Z,62.75
2023-05-07T11:12:36.974Z,61.22
2023-05-07T11:15:13.529Z,63.30
2023-05-07T11:17:59.067Z,61.23
2023-05-07T11:20:49.927Z,63.35
2023-05-07T11:23:35.655Z,61.19
2023-05-07T11:26:11.968Z,62.02
2023-05-07T11:28:44.362Z,62.85
2023-05-07T11:31:12.691Z,63.55
2023-05-07T11:33:39.739Z,63.28
2023-05-07T11:36:09.192Z,61.60
2023-05-07T11:38:39.618Z,60.46
2023-05-07T11:41:06.756Z,61.36
2023-05-07T11:43:36.447Z,60.88
2023-05-07T11:46:12.690Z,60.22
2023-05-07T11:48:40.490Z,58.05
2023-05-07T11:51:13.823Z,56.10
2023-05-07T11:53:43.646Z,56.65
2023-05-07T11:56:17.676Z,56.75
2023-05-07T11:58:47.107Z,57.91
2023-05-07T12:01:16.624Z,59.69
2023-05-07T12:03:48.370Z,60.52
2023-05-07T12:06:17.730Z,61.40
2023-05-07T12:08:48.571Z,62.11
2023-05-07T12:11:26.368Z,61.28
2023-05-07T12:13:58.891Z,62.94
2023-05-07T12:16:26.933Z,64.51
2023-05-07T12:18:56.138Z,62.09
2023-05-07T12:21:24.262Z,62.48
2023-05-07T12:23:51.850Z,65.62
2023-05-07T12:26:22.223Z,63.79
2023-05-07T12:28:49.097Z,65.52
2023-05-07T12:31:17.105Z,65.13
2023-05-07T12:33:44.407Z,66.71
2023-05-07T12:36:14.346Z,65.60
2023-05-07T12:38:41.928Z,70.68
2023-05-07T12:41:13.355Z,73.26
2023-05-07T12:43:40.394Z,77.83
2023-05-07T12:46:10.844Z,91.13
2023-05-07T12:48:39.622Z,95.11
2023-05-07T12:51:07.538Z,96.78
2023-05-07T12:53:42.429Z,100.00
2023-05-07T12:56:10.658Z,100.00
2023-05-07T12:58:38.281Z,100.00
2023-05-07T13:01:08.203Z,100.00
2023-05-07T13:03:38.441Z,100.00
2023-05-07T13:06:11.529Z,100.00
2023-05-07T13:08:43.680Z,100.00
2023-05-07T13:11:13.074Z,100.00
2023-05-07T13:13:42.369Z,100.00
2023-05-07T13:16:12.044Z,100.00
2023-05-07T13:18:41.423Z,100.00
2023-05-07T13:21:08.511Z,100.00
2023-05-07T13:23:35.414Z,100.00
2023-05-07T13:26:08.443Z,100.00
2023-05-07T13:28:38.495Z,100.00
2023-05-07T13:31:05.278Z,100.00
2023-05-07T13:33:32.093Z,100.00
2023-05-07T13:36:01.432Z,100.00
2023-05-07T13:38:28.487Z,100.00
2023-05-07T13:40:55.393Z,100.00
2023-05-07T13:43:22.176Z,100.00
2023-05-07T13:45:49.698Z,100.00
2023-05-07T13:48:16.547Z,100.00
2023-05-07T13:50:43.350Z,100.00
2023-05-07T13:53:10.254Z,100.00
2023-05-07T13:55:37.083Z,100.00
2023-05-07T13:58:07.080Z,100.00
2023-05-07T14:00:34.480Z,100.00
2023-05-07T14:03:01.446Z,100.00
2023-05-07T14:05:31.427Z,100.00
2023-05-07T14:07:59.208Z,100.00
2023-05-07T14:10:26.306Z,100.00
2023-05-07T14:12:53.654Z,100.00
2023-05-07T14:15:20.728Z,100.00
2023-05-07T14:17:48.000Z,100.00
2023-05-07T14:20:15.234Z,100.00
2023-05-07T14:22:42.339Z,100.00
2023-05-07T14:25:10.718Z,100.00
2023-05-07T14:27:37.687Z,100.00
2023-05-07T14:30:04.953Z,100.00
2023-05-07T14:32:31.871Z,100.00
2023-05-07T14:34:58.743Z,100.00
2023-05-07T14:37:26.027Z,100.00
2023-05-07T14:39:53.070Z,100.00
2023-05-07T14:42:19.918Z,100.00
2023-05-07T14:44:49.202Z,100.00
2023-05-07T14:47:19.008Z,100.00
2023-05-07T14:49:50.072Z,100.00
2023-05-07T14:52:16.902Z,100.00
2023-05-07T14:54:43.996Z,100.00
2023-05-07T14:57:14.447Z,100.00
2023-05-07T14:59:42.361Z,100.00
2023-05-07T15:02:12.640Z,100.00
2023-05-07T15:04:46.672Z,100.00
2023-05-07T15:07:16.834Z,100.00
2023-05-07T15:09:45.056Z,100.00
2023-05-07T15:12:12.798Z,100.00
2023-05-07T15:14:40.414Z,100.00
2023-05-07T15:17:08.469Z,100.00
2023-05-07T15:19:35.786Z,100.00
2023-05-07T15:22:05.593Z,100.00
2023-05-07T15:24:32.725Z,100.00
2023-05-07T15:27:00.127Z,100.00
2023-05-07T15:29:27.373Z,100.00
2023-05-07T15:31:55.493Z,100.00
2023-05-07T15:34:24.914Z,100.00
2023-05-07T15:36:51.846Z,100.00
2023-05-07T15:39:18.802Z,100.00
2023-05-07T15:41:46.099Z,100.00
2023-05-07T15:44:13.287Z,100.00
2023-05-07T15:46:43.222Z,100.00
2023-05-07T15:49:13.945Z,100.00
2023-05-07T15:51:47.572Z,100.00
2023-05-07T15:54:14.736Z,100.00
2023-05-07T15:56:41.899Z,100.00
2023-05-07T15:59:17.522Z,100.00
2023-05-07T16:01:46.419Z,100.00
2023-05-07T16:04:13.210Z,100.00
2023-05-07T16:06:40.056Z,100.00
2023-05-07T16:09:06.909Z,100.00
2023-05-07T16:11:34.110Z,100.00
2023-05-07T16:14:03.565Z,100.00
2023-05-07T16:16:37.931Z,100.00
2023-05-07T16:19:05.048Z,100.00
2023-05-07T16:21:32.748Z,100.00
2023-05-07T16:23:59.684Z,100.00
2023-05-07T16:26:26.770Z,100.00
2023-05-07T16:28:54.035Z,100.00
2023-05-07T16:31:20.883Z,100.00
2023-05-07T16:33:47.704Z,100.00
2023-05-07T16:36:14.581Z,100.00
2023-05-07T16:38:42.753Z,100.00
2023-05-07T16:41:10.539Z,100.00
2023-05-07T16:43:37.360Z,100.00
2023-05-07T16:46:04.285Z,100.00
2023-05-07T16:48:31.104Z,100.00
2023-05-07T16:50:58.904Z,100.00
2023-05-07T16:53:26.479Z,100.00
2023-05-07T16:55:56.410Z,100.00
2023-05-07T16:58:23.502Z,100.00
2023-05-07T17:00:51.333Z,100.00
2023-05-07T17:03:21.138Z,100.00
2023-05-07T17:05:48.218Z,100.00
2023-05-07T17:08:15.214Z,100.00
2023-05-07T17:10:42.443Z,100.00
2023-05-07T17:13:09.463Z,100.00
2023-05-07T17:15:36.451Z,100.00
2023-05-07T17:18:03.534Z,100.00
2023-05-07T17:20:30.376Z,100.00
2023-05-07T17:22:57.495Z,100.00
2023-05-07T17:25:24.446Z,100.00
2023-05-07T17:27:51.897Z,100.00
2023-05-07T17:30:19.224Z,100.00
2023-05-07T17:32:46.165Z,100.00
2023-05-07T17:35:12.997Z,100.00
2023-05-07T17:37:40.168Z,100.00
2023-05-07T17:40:07.942Z,100.00
2023-05-07T17:42:37.405Z,100.00
2023-05-07T17:45:04.635Z,100.00
2023-05-07T17:47:31.968Z,100.00
2023-05-07T17:49:59.922Z,100.00
2023-05-07T17:52:30.481Z,100.00
2023-05-07T17:54:57.236Z,100.00
2023-05-07T17:57:24.055Z,100.00
2023-05-07T17:59:50.869Z,100.00
2023-05-07T18:02:17.807Z,100.00
2023-05-07T18:04:44.894Z,100.00
2023-05-07T18:07:11.831Z,100.00
2023-05-07T18:09:38.651Z,100.00
2023-05-07T18:12:05.804Z,100.00
2023-05-07T18:14:32.656Z,100.00
2023-05-07T18:16:59.706Z,100.00
2023-05-07T18:19:27.934Z,100.00
2023-05-07T18:21:57.374Z,100.00
2023-05-07T18:24:25.190Z,100.00
2023-05-07T18:26:52.002Z,100.00
2023-05-07T18:29:18.908Z,100.00
2023-05-07T18:31:46.048Z,100.00
2023-05-07T18:34:14.185Z,100.00
2023-05-07T18:36:41.163Z,100.00
2023-05-07T18:39:08.832Z,100.00
2023-05-07T18:41:39.567Z,100.00
2023-05-07T18:44:07.328Z,100.00
2023-05-07T18:46:34.229Z,100.00
2023-05-07T18:49:01.334Z,100.00
2023-05-07T18:51:28.434Z,100.00
2023-05-07T18:53:55.373Z,100.00
2023-05-07T18:56:22.248Z,100.00
2023-05-07T18:58:51.337Z,100.00
2023-05-07T19:01:18.751Z,100.00
2023-05-07T19:03:45.665Z,100.00
2023-05-07T19:06:12.658Z,100.00
2023-05-07T19:08:42.671Z,100.00
2023-05-07T19:11:09.669Z,100.00
2023-05-07T19:13:36.844Z,100.00
2023-05-07T19:16:05.524Z,100.00
2023-05-07T19:18:32.723Z,100.00
2023-05-07T19:20:59.491Z,100.00
2023-05-07T19:23:26.503Z,100.00
2023-05-07T19:25:56.282Z,100.00
2023-05-07T19:28:23.856Z,100.00
2023-05-07T19:30:53.602Z,100.00
2023-05-07T19:33:20.457Z,100.00
2023-05-07T19:35:52.035Z,100.00
2023-05-07T19:38:18.945Z,100.00
2023-05-07T19:40:45.914Z,100.00
2023-05-07T19:43:13.026Z,100.00
2023-05-07T19:45:42.866Z,100.00
2023-05-07T19:48:10.618Z,100.00
2023-05-07T19:50:40.840Z,100.00
2023-05-07T19:53:07.874Z,100.00
2023-05-07T19:55:34.895Z,100.00
2023-05-07T19:58:01.709Z,100.00
2023-05-07T20:00:32.171Z,100.00
2023-05-07T20:02:59.157Z,100.00
2023-05-07T20:05:28.057Z,100.00
2023-05-07T20:07:55.711Z,100.00
2023-05-07T20:10:23.108Z,100.00
2023-05-07T20:12:49.972Z,100.00
2023-05-07T20:15:17.090Z,100.00
2023-05-07T20:17:44.064Z,100.00
2023-05-07T20:20:11.815Z,100.00
2023-05-07T20:22:39.065Z,100.00
2023-05-07T20:25:06.885Z,100.00
2023-05-07T20:27:37.127Z,100.00
2023-05-07T20:30:04.777Z,100.00
2023-05-07T20:32:31.620Z,100.00
2023-05-07T20:34:58.546Z,100.00
2023-05-07T20:37:26.771Z,100.00
2023-05-07T20:39:53.714Z,100.00
2023-05-07T20:42:20.800Z,100.00
2023-05-07T20:44:48.196Z,100.00
2023-05-07T20:47:16.676Z,100.00
2023-05-07T20:49:43.681Z,100.00
2023-05-07T20:52:10.453Z,100.00
2023-05-07T20:54:40.253Z,100.00
2023-05-07T20:57:07.436Z,100.00
2023-05-07T20:59:34.882Z,100.00
2023-05-07T21:02:03.059Z,100.00
2023-05-07T21:04:30.888Z,100.00
2023-05-07T21:06:58.139Z,100.00
2023-05-07T21:09:24.984Z,100.00
2023-05-07T21:11:52.237Z,100.00
2023-05-07T21:14:20.221Z,100.00
2023-05-07T21:16:47.071Z,100.00
2023-05-07T21:19:14.157Z,100.00
2023-05-07T21:21:43.023Z,100.00
2023-05-07T21:24:09.896Z,100.00
2023-05-07T21:26:39.062Z,100.00
2023-05-07T21:29:05.852Z,100.00
2023-05-07T21:31:32.845Z,100.00
2023-05-07T21:33:59.616Z,100.00
2023-05-07T21:36:27.073Z,100.00
2023-05-07T21:38:57.021Z,100.00
2023-05-07T21:41:23.895Z,100.00
2023-05-07T21:43:53.766Z,100.00
2023-05-07T21:46:21.964Z,100.00
2023-05-07T21:48:48.810Z,100.00
2023-05-07T21:51:15.537Z,100.00
2023-05-07T21:53:42.418Z,100.00
2023-05-07T21:56:09.236Z,100.00
2023-05-07T21:58:36.044Z,100.00
2023-05-07T22:01:03.131Z,100.00
2023-05-07T22:03:30.425Z,100.00
2023-05-07T22:05:57.622Z,100.00
2023-05-07T22:08:24.584Z,100.00
2023-05-07T22:10:51.524Z,100.00
2023-05-07T22:13:18.335Z,100.00
2023-05-07T22:15:56.130Z,100.00
2023-05-07T22:18:24.590Z,100.00
2023-05-07T22:20:52.408Z,100.00
2023-05-07T22:23:19.259Z,100.00
2023-05-07T22:25:46.178Z,100.00
2023-05-07T22:28:14.684Z,100.00
2023-05-07T22:30:41.716Z,100.00
2023-05-07T22:33:08.658Z,100.00
2023-05-07T22:35:35.451Z,100.00
2023-05-07T22:38:02.337Z,100.00
2023-05-07T22:40:30.343Z,100.00
2023-05-07T22:42:57.230Z,100.00
2023-05-07T22:45:24.615Z,100.00
2023-05-07T22:47:52.128Z,100.00
2023-05-07T22:50:19.485Z,100.00
2023-05-07T22:52:46.505Z,100.00
2023-05-07T22:55:15.128Z,100.00
2023-05-07T22:57:42.029Z,100.00
2023-05-07T23:00:10.791Z,100.00
2023-05-07T23:02:40.882Z,100.00
2023-05-07T23:05:08.175Z,100.00
2023-05-07T23:07:37.752Z,100.00
2023-05-07T23:10:05.751Z,100.00
2023-05-07T23:12:33.683Z,100.00
2023-05-07T23:15:00.805Z,100.00
2023-05-07T23:17:27.860Z,100.00
2023-05-07T23:19:55.389Z,100.00
2023-05-07T23:22:25.324Z,100.00
2023-05-07T23:24:52.111Z,100.00
2023-05-07T23:27:19.173Z,100.00
2023-05-07T23:29:46.683Z,100.00
2023-05-07T23:32:13.505Z,100.00
2023-05-07T23:34:40.562Z,100.00
2023-05-07T23:37:10.277Z,100.00
2023-05-07T23:39:37.087Z,100.00
2023-05-07T23:42:04.208Z,100.00
2023-05-07T23:44:31.067Z,100.00
2023-05-07T23:46:57.877Z,100.00
2023-05-07T23:49:24.732Z,100.00
2023-05-07T23:51:51.559Z,100.00
2023-05-07T23:54:18.428Z,100.00
2023-05-07T23:56:45.470Z,100.00
2023-05-07T23:59:12.364Z,100.00
